createdAt,value
2023-01-19T00:00:08.800Z,2.30
2023-01-19T00:02:35.750Z,2.47
2023-01-19T00:05:04.101Z,2.50
2023-01-19T00:07:31.870Z,2.80
2023-01-19T00:09:59.121Z,2.78
2023-01-19T00:12:26.425Z,3.72
2023-01-19T00:14:53.231Z,3.20
2023-01-19T00:17:20.164Z,3.00
2023-01-19T00:19:47.039Z,4.07
2023-01-19T00:22:13.909Z,3.25
2023-01-19T00:24:40.772Z,3.08
2023-01-19T00:27:07.612Z,3.33
2023-01-19T00:29:34.490Z,2.75
2023-01-19T00:32:01.930Z,2.70
2023-01-19T00:34:36.828Z,3.08
2023-01-19T00:37:04.495Z,2.78
2023-01-19T00:39:31.315Z,2.90
2023-01-19T00:42:16.626Z,2.92
2023-01-19T00:44:43.569Z,2.83
2023-01-19T00:47:10.483Z,2.72
2023-01-19T00:49:37.334Z,3.22
2023-01-19T00:52:04.560Z,4.00
2023-01-19T00:54:31.438Z,3.83
2023-01-19T00:56:58.400Z,3.15
2023-01-19T00:59:25.916Z,3.38
2023-01-19T01:01:53.071Z,2.92
2023-01-19T01:04:20.335Z,3.00
2023-01-19T01:06:47.325Z,3.20
2023-01-19T01:09:14.345Z,3.20
2023-01-19T01:11:42.651Z,2.80
2023-01-19T01:14:11.734Z,2.65
2023-01-19T01:16:38.861Z,2.47
2023-01-19T01:19:05.809Z,2.30
2023-01-19T01:21:34.632Z,2.03
2023-01-19T01:24:02.347Z,1.90
2023-01-19T01:26:29.319Z,2.10
2023-01-19T01:28:56.203Z,2.30
2023-01-19T01:31:23.077Z,1.88
2023-01-19T01:33:49.979Z,1.58
2023-01-19T01:36:19.008Z,1.58
2023-01-19T01:38:45.847Z,1.85
2023-01-19T01:41:12.926Z,1.85
2023-01-19T01:43:53.557Z,2.17
2023-01-19T01:46:20.940Z,2.10
2023-01-19T01:49:12.664Z,1.60
2023-01-19T01:51:54.308Z,1.00
2023-01-19T01:54:29.134Z,0.95
2023-01-19T01:57:00.739Z,1.23
2023-01-19T01:59:34.747Z,0.85
2023-01-19T02:02:24.262Z,1.58
2023-01-19T02:04:56.144Z,0.85
2023-01-19T02:07:50.270Z,1.10
2023-01-19T02:10:36.967Z,0.88
2023-01-19T02:13:22.602Z,1.00
2023-01-19T02:15:51.825Z,0.77
2023-01-19T02:18:20.683Z,0.80
2023-01-19T02:21:11.239Z,0.60
2023-01-19T02:23:39.214Z,0.88
2023-01-19T02:26:07.521Z,0.77
2023-01-19T02:28:34.562Z,0.82
2023-01-19T02:31:01.494Z,0.98
2023-01-19T02:33:28.458Z,0.57
2023-01-19T02:35:56.898Z,0.80
2023-01-19T02:38:27.295Z,0.90
2023-01-19T02:40:58.029Z,1.10
2023-01-19T02:43:25.606Z,0.90
2023-01-19T02:45:52.738Z,0.95
2023-01-19T02:48:21.244Z,0.90
2023-01-19T02:50:53.098Z,0.90
2023-01-19T02:53:47.395Z,0.80
2023-01-19T02:56:40.007Z,1.08
2023-01-19T02:59:33.281Z,1.15
2023-01-19T03:02:26.776Z,1.00
2023-01-19T03:05:29.575Z,0.98
2023-01-19T03:08:02.444Z,1.08
2023-01-19T03:10:42.876Z,0.82
2023-01-19T03:13:35.549Z,1.08
2023-01-19T03:16:25.644Z,1.25
2023-01-19T03:18:56.009Z,0.90
2023-01-19T03:21:26.417Z,1.17
2023-01-19T03:23:57.998Z,0.95
2023-01-19T03:26:29.943Z,0.90
2023-01-19T03:29:02.290Z,1.00
2023-01-19T03:31:32.068Z,0.90
2023-01-19T03:34:05.740Z,0.88
2023-01-19T03:36:40.605Z,0.80
2023-01-19T03:39:09.806Z,0.90
2023-01-19T03:41:39.414Z,1.00
2023-01-19T03:44:06.885Z,0.90
2023-01-19T03:46:34.692Z,1.10
2023-01-19T03:49:01.780Z,1.30
2023-01-19T03:51:28.739Z,1.10
2023-01-19T03:53:55.587Z,1.15
2023-01-19T03:56:24.817Z,1.08
2023-01-19T03:58:51.999Z,0.90
2023-01-19T04:01:23.347Z,1.08
2023-01-19T04:03:51.848Z,1.02
2023-01-19T04:06:20.151Z,0.93
2023-01-19T04:08:51.096Z,1.15
2023-01-19T04:11:18.587Z,1.00
2023-01-19T04:13:45.445Z,0.90
2023-01-19T04:16:12.708Z,0.77
2023-01-19T04:18:42.216Z,0.70
2023-01-19T04:21:09.220Z,0.80
2023-01-19T04:23:36.970Z,0.90
2023-01-19T04:26:08.967Z,0.60
2023-01-19T04:28:39.443Z,0.80
2023-01-19T04:31:07.110Z,0.82
2023-01-19T04:33:34.586Z,0.75
2023-01-19T04:36:01.828Z,0.70
2023-01-19T04:38:28.724Z,0.73
2023-01-19T04:40:56.027Z,0.95
2023-01-19T04:43:23.610Z,0.90
2023-01-19T04:45:50.833Z,0.90
2023-01-19T04:48:18.925Z,0.55
2023-01-19T04:50:46.073Z,0.80
2023-01-19T04:53:13.813Z,1.02
2023-01-19T04:55:41.016Z,0.47
2023-01-19T04:58:07.944Z,0.80
2023-01-19T05:00:34.915Z,0.65
2023-01-19T05:03:02.366Z,0.90
2023-01-19T05:05:29.853Z,0.77
2023-01-19T05:07:57.019Z,0.63
2023-01-19T05:10:24.113Z,0.50
2023-01-19T05:12:51.444Z,0.60
2023-01-19T05:15:18.549Z,0.52
2023-01-19T05:17:45.895Z,0.80
2023-01-19T05:20:16.123Z,0.52
2023-01-19T05:22:43.836Z,0.70
2023-01-19T05:25:10.691Z,0.70
2023-01-19T05:27:38.682Z,0.68
2023-01-19T05:30:06.682Z,0.82
2023-01-19T05:32:33.613Z,0.63
2023-01-19T05:35:00.614Z,0.90
2023-01-19T05:37:27.544Z,0.70
2023-01-19T05:39:54.868Z,0.80
2023-01-19T05:42:21.718Z,0.63
2023-01-19T05:44:48.685Z,0.50
2023-01-19T05:47:15.665Z,0.70
2023-01-19T05:49:42.512Z,0.57
2023-01-19T05:52:09.489Z,0.60
2023-01-19T05:54:36.400Z,0.70
2023-01-19T05:57:04.535Z,0.70
2023-01-19T05:59:31.330Z,0.65
2023-01-19T06:02:00.007Z,0.70
2023-01-19T06:04:27.008Z,0.60
2023-01-19T06:06:53.882Z,0.60
2023-01-19T06:09:20.746Z,0.75
2023-01-19T06:11:47.639Z,0.70
2023-01-19T06:14:14.527Z,0.80
2023-01-19T06:16:41.815Z,0.90
2023-01-19T06:19:08.719Z,0.60
2023-01-19T06:21:35.558Z,1.30
2023-01-19T06:24:03.621Z,0.93
2023-01-19T06:26:30.511Z,0.60
2023-01-19T06:28:57.447Z,0.75
2023-01-19T06:31:24.358Z,0.70
2023-01-19T06:33:51.780Z,0.95
2023-01-19T06:36:18.637Z,1.00
2023-01-19T06:38:45.510Z,0.95
2023-01-19T06:41:12.328Z,0.70
2023-01-19T06:43:39.242Z,0.73
2023-01-19T06:46:06.348Z,0.95
2023-01-19T06:48:33.239Z,0.98
2023-01-19T06:51:00.098Z,0.80
2023-01-19T06:53:28.499Z,0.70
2023-01-19T06:55:59.934Z,0.90
2023-01-19T06:58:28.518Z,0.77
2023-01-19T07:00:56.337Z,1.10
2023-01-19T07:03:23.843Z,0.77
2023-01-19T07:05:54.145Z,0.90
2023-01-19T07:08:21.459Z,1.10
2023-01-19T07:11:25.799Z,0.80
2023-01-19T07:13:37.387Z,1.00
2023-01-19T07:16:09.080Z,0.93
2023-01-19T07:18:37.492Z,0.90
2023-01-19T07:21:04.854Z,0.90
2023-01-19T07:23:31.861Z,1.02
2023-01-19T07:26:01.758Z,0.80
2023-01-19T07:28:29.738Z,0.70
2023-01-19T07:30:56.758Z,0.98
2023-01-19T07:33:26.207Z,0.68
2023-01-19T07:35:53.618Z,0.52
2023-01-19T07:38:21.428Z,0.60
2023-01-19T07:40:48.346Z,0.73
2023-01-19T07:43:15.874Z,0.68
2023-01-19T07:45:43.427Z,0.52
2023-01-19T07:48:10.381Z,0.77
2023-01-19T07:50:37.293Z,0.80
2023-01-19T07:53:08.880Z,0.77
2023-01-19T07:55:36.367Z,0.65
2023-01-19T07:58:06.677Z,0.60
2023-01-19T08:00:35.746Z,0.75
2023-01-19T08:03:04.412Z,1.00
2023-01-19T08:05:33.219Z,0.95
2023-01-19T08:08:00.659Z,0.95
2023-01-19T08:10:28.647Z,1.00
2023-01-19T08:12:56.847Z,0.70
2023-01-19T08:15:24.941Z,0.80
2023-01-19T08:18:02.834Z,0.90
2023-01-19T08:20:30.076Z,1.17
2023-01-19T08:23:00.453Z,0.98
2023-01-19T08:25:34.408Z,1.38
2023-01-19T08:28:02.255Z,1.35
2023-01-19T08:30:30.368Z,1.48
2023-01-19T08:33:18.243Z,1.63
2023-01-19T08:35:49.111Z,1.80
2023-01-19T08:38:16.942Z,1.95
2023-01-19T08:40:44.333Z,1.90
2023-01-19T08:43:16.557Z,1.63
2023-01-19T08:45:49.588Z,1.88
2023-01-19T08:48:19.207Z,1.90
2023-01-19T08:50:47.814Z,1.40
2023-01-19T08:53:15.129Z,1.55
2023-01-19T08:55:42.534Z,2.03
2023-01-19T08:58:09.873Z,2.50
2023-01-19T09:00:39.014Z,2.10
2023-01-19T09:03:08.681Z,1.90
2023-01-19T09:05:38.822Z,1.60
2023-01-19T09:08:09.317Z,1.60
2023-01-19T09:10:37.946Z,1.60
2023-01-19T09:13:08.659Z,1.70
2023-01-19T09:15:37.872Z,1.65
2023-01-19T09:18:07.367Z,1.60
2023-01-19T09:20:36.238Z,2.45
2023-01-19T09:23:03.199Z,2.13
2023-01-19T09:25:30.398Z,3.80
2023-01-19T09:27:59.326Z,3.55
2023-01-19T09:30:27.951Z,4.40
2023-01-19T09:32:55.034Z,3.88
2023-01-19T09:35:22.036Z,2.25
2023-01-19T09:37:48.981Z,1.95
2023-01-19T09:40:23.411Z,1.70
2023-01-19T09:43:16.358Z,1.52
2023-01-19T09:45:55.394Z,1.58
2023-01-19T09:48:40.974Z,1.25
2023-01-19T09:51:14.004Z,1.45
2023-01-19T09:53:40.877Z,1.80
2023-01-19T09:56:20.099Z,1.40
2023-01-19T09:58:51.157Z,1.63
2023-01-19T10:01:50.753Z,1.40
2023-01-19T10:04:48.025Z,1.73
2023-01-19T10:07:39.606Z,1.67
2023-01-19T10:10:20.376Z,1.77
2023-01-19T10:13:20.435Z,1.38
2023-01-19T10:16:02.625Z,1.50
2023-01-19T10:18:47.589Z,1.83
2023-01-19T10:21:19.657Z,1.60
2023-01-19T10:24:09.999Z,1.80
2023-01-19T10:26:52.976Z,1.90
2023-01-19T10:29:30.552Z,2.00
2023-01-19T10:32:22.162Z,1.70
2023-01-19T10:34:50.623Z,1.90
2023-01-19T10:37:25.528Z,2.17
2023-01-19T10:39:54.896Z,2.00
2023-01-19T10:42:21.950Z,1.77
2023-01-19T10:44:49.936Z,1.90
2023-01-19T10:47:21.248Z,2.10
2023-01-19T10:49:49.136Z,2.35
2023-01-19T10:52:31.039Z,2.40
2023-01-19T10:55:00.198Z,2.35
2023-01-19T10:57:38.384Z,1.92
2023-01-19T11:00:29.448Z,2.10
2023-01-19T11:02:56.633Z,1.75
2023-01-19T11:05:26.596Z,2.28
2023-01-19T11:07:53.476Z,2.30
2023-01-19T11:10:30.925Z,2.00
2023-01-19T11:13:15.884Z,2.70
2023-01-19T11:15:49.018Z,3.30
2023-01-19T11:18:29.071Z,3.37
2023-01-19T11:21:16.640Z,3.45
2023-01-19T11:23:53.074Z,4.38
2023-01-19T11:26:29.162Z,3.50
2023-01-19T11:28:58.518Z,3.22
2023-01-19T11:31:28.280Z,3.30
2023-01-19T11:33:59.704Z,2.20
2023-01-19T11:36:27.767Z,1.88
2023-01-19T11:38:56.868Z,1.50
2023-01-19T11:41:29.070Z,1.30
2023-01-19T11:44:00.242Z,1.10
2023-01-19T11:46:34.590Z,1.40
2023-01-19T11:49:12.847Z,1.35
2023-01-19T11:51:54.400Z,1.50
2023-01-19T11:54:27.324Z,1.75
2023-01-19T11:56:56.767Z,1.65
2023-01-19T11:59:25.163Z,1.95
2023-01-19T12:01:59.213Z,1.60
2023-01-19T12:04:28.809Z,1.80
2023-01-19T12:06:57.366Z,2.20
2023-01-19T12:09:29.198Z,2.03
2023-01-19T12:12:08.986Z,1.90
2023-01-19T12:14:50.139Z,2.40
2023-01-19T12:17:48.696Z,2.35
2023-01-19T12:20:48.001Z,3.05
2023-01-19T12:23:46.835Z,2.83
2023-01-19T12:26:25.034Z,2.50
2023-01-19T12:28:53.250Z,2.53
2023-01-19T12:31:22.593Z,3.95
2023-01-19T12:33:50.376Z,3.15
2023-01-19T12:36:17.194Z,4.97
2023-01-19T12:38:50.977Z,6.90
2023-01-19T12:41:25.383Z,6.68
2023-01-19T12:44:14.812Z,4.07
2023-01-19T12:46:42.460Z,8.88
2023-01-19T12:49:18.216Z,7.40
2023-01-19T12:51:45.892Z,4.70
2023-01-19T12:54:28.883Z,2.92
2023-01-19T12:57:08.028Z,2.20
2023-01-19T12:59:39.277Z,2.00
2023-01-19T13:02:21.090Z,2.00
2023-01-19T13:05:06.552Z,2.30
2023-01-19T13:08:02.692Z,1.95
2023-01-19T13:10:54.447Z,2.47
2023-01-19T13:13:24.530Z,2.08
2023-01-19T13:15:54.789Z,2.33
2023-01-19T13:18:28.677Z,2.10
2023-01-19T13:21:04.593Z,1.93
2023-01-19T13:23:52.448Z,2.00
2023-01-19T13:26:24.652Z,1.58
2023-01-19T13:28:59.023Z,2.03
2023-01-19T13:31:27.295Z,1.55
2023-01-19T13:33:56.354Z,1.63
2023-01-19T13:36:26.794Z,2.40
2023-01-19T13:38:55.640Z,1.40
2023-01-19T13:41:25.795Z,1.48
2023-01-19T13:44:00.208Z,2.13
2023-01-19T13:46:28.177Z,1.70
2023-01-19T13:49:00.073Z,1.67
2023-01-19T13:51:27.299Z,2.80
2023-01-19T13:53:58.874Z,2.58
2023-01-19T13:56:29.004Z,2.78
2023-01-19T13:59:01.244Z,2.30
2023-01-19T14:01:29.550Z,2.28
2023-01-19T14:03:57.207Z,2.50
2023-01-19T14:06:44.313Z,2.20
2023-01-19T14:09:19.510Z,2.00
2023-01-19T14:12:04.300Z,2.50
2023-01-19T14:14:31.485Z,2.50
2023-01-19T14:17:00.758Z,2.60
2023-01-19T14:19:28.550Z,2.85
2023-01-19T14:22:03.679Z,2.40
2023-01-19T14:24:33.345Z,2.20
2023-01-19T14:27:29.387Z,2.20
2023-01-19T14:30:20.617Z,1.70
2023-01-19T14:32:47.819Z,1.67
2023-01-19T14:35:23.531Z,1.50
2023-01-19T14:37:52.438Z,1.63
2023-01-19T14:40:21.243Z,1.70
2023-01-19T14:43:08.576Z,2.20
2023-01-19T14:45:41.380Z,1.80
2023-01-19T14:48:20.617Z,1.73
2023-01-19T14:51:02.338Z,1.70
2023-01-19T14:53:38.857Z,1.85
2023-01-19T14:56:06.848Z,1.63
2023-01-19T14:58:35.273Z,2.15
2023-01-19T15:01:02.947Z,1.77
2023-01-19T15:03:43.348Z,1.60
2023-01-19T15:06:20.305Z,1.50
2023-01-19T15:08:49.998Z,1.65
2023-01-19T15:11:35.309Z,1.80
2023-01-19T15:14:03.002Z,1.50
2023-01-19T15:16:32.965Z,1.70
2023-01-19T15:19:00.043Z,1.63
2023-01-19T15:21:27.019Z,1.85
2023-01-19T15:23:54.791Z,1.50
2023-01-19T15:26:24.804Z,1.60
2023-01-19T15:28:52.008Z,2.17
2023-01-19T15:31:21.936Z,1.85
2023-01-19T15:33:48.884Z,2.03
2023-01-19T15:36:18.302Z,1.90
2023-01-19T15:38:45.747Z,2.20
2023-01-19T15:41:30.029Z,2.30
2023-01-19T15:46:25.845Z,2.40
2023-01-19T15:48:54.873Z,2.90
2023-01-19T15:51:25.577Z,2.85
2023-01-19T15:53:53.243Z,2.92
2023-01-19T15:56:23.501Z,24.88
2023-01-19T15:58:50.958Z,53.70
2023-01-19T16:01:21.811Z,71.78
2023-01-19T16:03:49.037Z,52.35
2023-01-19T16:06:19.240Z,29.33
2023-01-19T16:08:46.179Z,25.40
2023-01-19T16:11:15.352Z,19.02
2023-01-19T16:13:46.272Z,9.57
2023-01-19T16:16:19.547Z,8.15
2023-01-19T16:18:46.596Z,6.00
2023-01-19T16:21:13.471Z,4.25
2023-01-19T16:23:40.360Z,3.47
2023-01-19T16:26:22.700Z,3.10
2023-01-19T16:28:49.587Z,3.10
2023-01-19T16:31:16.730Z,3.67
2023-01-19T16:33:45.281Z,3.25
2023-01-19T16:36:23.778Z,3.45
2023-01-19T16:38:50.765Z,3.95
2023-01-19T16:41:18.052Z,3.75
2023-01-19T16:43:49.534Z,4.45
2023-01-19T16:46:24.992Z,29.67
2023-01-19T16:48:52.780Z,50.00
2023-01-19T16:51:20.291Z,25.77
2023-01-19T16:53:49.853Z,11.07
2023-01-19T16:56:17.243Z,6.00
2023-01-19T16:58:44.333Z,5.18
2023-01-19T17:01:19.586Z,5.05
2023-01-19T17:03:47.373Z,4.07
2023-01-19T17:06:22.709Z,3.80
2023-01-19T17:08:51.338Z,3.30
2023-01-19T17:11:29.507Z,3.20
2023-01-19T17:14:02.073Z,3.00
2023-01-19T17:16:31.439Z,2.63
2023-01-19T17:18:59.872Z,4.45
2023-01-19T17:21:27.177Z,4.05
2023-01-19T17:23:55.814Z,3.00
2023-01-19T17:26:25.344Z,2.85
2023-01-19T17:28:52.182Z,2.78
2023-01-19T17:31:21.281Z,3.03
2023-01-19T17:33:50.186Z,3.10
2023-01-19T17:36:23.114Z,3.33
2023-01-19T17:38:50.470Z,4.00
2023-01-19T17:41:20.101Z,3.33
2023-01-19T17:43:47.123Z,3.10
2023-01-19T17:46:14.202Z,3.13
2023-01-19T17:48:41.135Z,3.03
2023-01-19T17:51:10.576Z,3.30
2023-01-19T17:53:40.427Z,4.20
2023-01-19T17:56:09.910Z,4.70
2023-01-19T17:58:37.203Z,4.90
2023-01-19T18:01:18.579Z,5.85
2023-01-19T18:03:46.102Z,5.03
2023-01-19T18:06:13.226Z,5.30
2023-01-19T18:08:42.063Z,5.07
2023-01-19T18:11:10.427Z,5.07
2023-01-19T18:13:38.413Z,5.68
2023-01-19T18:16:14.710Z,5.18
2023-01-19T18:18:42.221Z,5.00
2023-01-19T18:21:11.205Z,4.68
2023-01-19T18:23:38.851Z,4.78
2023-01-19T18:26:11.057Z,5.43
2023-01-19T18:28:38.100Z,4.95
2023-01-19T18:31:10.103Z,4.93
2023-01-19T18:33:38.865Z,4.72
2023-01-19T18:36:06.393Z,4.10
2023-01-19T18:38:33.818Z,3.40
2023-01-19T18:41:10.255Z,3.08
2023-01-19T18:43:37.311Z,2.72
2023-01-19T18:46:04.475Z,2.72
2023-01-19T18:48:31.437Z,3.15
2023-01-19T18:51:03.287Z,2.70
2023-01-19T18:53:31.880Z,2.42
2023-01-19T18:56:01.946Z,2.60
2023-01-19T18:58:30.076Z,2.05
2023-01-19T19:00:57.711Z,2.30
2023-01-19T19:03:24.964Z,2.67
2023-01-19T19:05:52.309Z,2.75
2023-01-19T19:08:19.257Z,3.08
2023-01-19T19:10:46.342Z,3.15
2023-01-19T19:13:15.389Z,3.30
2023-01-19T19:15:44.335Z,2.53
2023-01-19T19:18:13.871Z,2.80
2023-01-19T19:20:42.213Z,3.42
2023-01-19T19:23:09.896Z,2.97
2023-01-19T19:25:36.838Z,3.72
2023-01-19T19:28:04.210Z,3.63
2023-01-19T19:30:32.948Z,3.33
2023-01-19T19:33:01.112Z,3.00
2023-01-19T19:35:28.257Z,3.35
2023-01-19T19:37:57.679Z,3.33
2023-01-19T19:40:26.181Z,3.30
2023-01-19T19:42:53.173Z,3.67
2023-01-19T19:45:20.191Z,3.33
2023-01-19T19:47:47.106Z,3.38
2023-01-19T19:50:14.477Z,3.40
2023-01-19T19:52:42.233Z,3.30
2023-01-19T19:55:10.594Z,3.13
2023-01-19T19:57:37.510Z,3.10
2023-01-19T20:00:05.348Z,2.92
2023-01-19T20:02:32.735Z,3.60
2023-01-19T20:04:59.719Z,2.97
2023-01-19T20:07:26.685Z,3.10
2023-01-19T20:09:55.142Z,3.15
2023-01-19T20:12:22.259Z,3.30
2023-01-19T20:14:49.297Z,3.40
2023-01-19T20:17:16.371Z,3.13
2023-01-19T20:19:43.884Z,3.00
2023-01-19T20:22:10.741Z,3.33
2023-01-19T20:24:37.621Z,3.05
2023-01-19T20:27:04.595Z,2.97
2023-01-19T20:29:31.499Z,3.08
2023-01-19T20:31:58.433Z,3.45
2023-01-19T20:34:30.449Z,3.47
2023-01-19T20:36:59.087Z,3.63
2023-01-19T20:39:26.006Z,3.00
2023-01-19T20:41:53.189Z,3.03
2023-01-19T20:44:23.350Z,2.90
2023-01-19T20:46:51.350Z,3.60
2023-01-19T20:49:18.346Z,3.22
2023-01-19T20:51:46.979Z,3.45
2023-01-19T20:54:17.113Z,3.80
2023-01-19T20:56:44.306Z,3.97
2023-01-19T20:59:12.554Z,3.75
2023-01-19T21:01:40.772Z,3.05
2023-01-19T21:04:08.532Z,3.00
2023-01-19T21:06:35.926Z,3.22
2023-01-19T21:09:03.297Z,3.78
2023-01-19T21:11:30.436Z,3.08
2023-01-19T21:13:57.311Z,2.88
2023-01-19T21:16:29.177Z,3.10
2023-01-19T21:18:56.170Z,2.95
2023-01-19T21:21:30.792Z,2.55
2023-01-19T21:23:59.899Z,3.38
2023-01-19T21:26:29.684Z,2.80
2023-01-19T21:29:00.583Z,2.97
2023-01-19T21:31:28.366Z,2.70
2023-01-19T21:33:58.679Z,3.05
2023-01-19T21:36:26.795Z,3.30
2023-01-19T21:39:00.104Z,3.03
2023-01-19T21:41:28.330Z,3.65
2023-01-19T21:43:55.353Z,4.15
2023-01-19T21:46:29.621Z,3.40
2023-01-19T21:49:02.067Z,3.25
2023-01-19T21:51:33.609Z,3.53
2023-01-19T21:54:01.705Z,3.65
2023-01-19T21:56:29.689Z,3.50
2023-01-19T21:58:57.902Z,3.70
2023-01-19T22:01:25.038Z,3.75
2023-01-19T22:03:57.552Z,3.85
2023-01-19T22:06:26.224Z,3.67
2023-01-19T22:08:54.094Z,4.03
2023-01-19T22:11:21.601Z,3.75
2023-01-19T22:13:48.688Z,3.50
2023-01-19T22:16:18.175Z,3.75
2023-01-19T22:18:49.200Z,4.05
2023-01-19T22:21:20.701Z,4.00
2023-01-19T22:23:57.534Z,3.70
2023-01-19T22:26:24.477Z,3.88
2023-01-19T22:28:59.653Z,3.95
2023-01-19T22:31:28.203Z,4.45
2023-01-19T22:33:55.947Z,4.05
2023-01-19T22:36:25.262Z,4.40
2023-01-19T22:38:53.165Z,4.57
2023-01-19T22:41:26.711Z,4.75
2023-01-19T22:43:55.601Z,4.55
2023-01-19T22:46:25.028Z,4.43
2023-01-19T22:48:52.582Z,4.30
2023-01-19T22:51:19.973Z,4.32
2023-01-19T22:53:47.213Z,4.63
2023-01-19T22:56:23.694Z,4.32
2023-01-19T22:58:51.152Z,4.20
2023-01-19T23:01:20.981Z,4.65
2023-01-19T23:03:47.989Z,4.88
2023-01-19T23:06:17.687Z,5.35
2023-01-19T23:08:45.132Z,5.35
2023-01-19T23:11:21.249Z,5.30
2023-01-19T23:13:48.319Z,4.88
2023-01-19T23:16:15.442Z,5.07
2023-01-19T23:18:42.537Z,4.90
2023-01-19T23:21:12.639Z,4.70
2023-01-19T23:23:39.567Z,5.22
2023-01-19T23:26:09.287Z,5.40
2023-01-19T23:28:39.652Z,5.88
2023-01-19T23:31:22.299Z,5.85
2023-01-19T23:33:50.691Z,7.15
2023-01-19T23:36:18.892Z,7.13
2023-01-19T23:38:56.957Z,8.10
2023-01-19T23:41:24.595Z,7.25
2023-01-19T23:43:52.159Z,7.60
2023-01-19T23:46:20.131Z,8.05
2023-01-19T23:48:47.301Z,7.70
2023-01-19T23:51:20.270Z,8.13
2023-01-19T23:53:47.460Z,7.63
2023-01-19T23:56:20.646Z,7.90
2023-01-19T23:58:52.463Z,7.32
